Hood River, Oregon
Current Conditions -  °F | °C
As of 11:59 PM on Wednesday 26 Nov 2014 (Local Time) from K4S2 Reporting Station
Broken Clouds Broken Clouds  
Wind Chill: 46°   Ceiling: 11000
Heat Index: 46°   Visibility: 10mi
Dew Point: 46°   Wind: 0mph
Humidity: 100%   Direction: NA
Pressure: 29.99"   Gusts: NA
Location:  45.71°N, 121.52°W
Report Text: K4S2 270759Z AUTO 00000KT 10SM SCT085 BKN110 08/08 A2999 RMK AO2 SLP170 T00800080
Loading
Personal Weather Stations






























Interactive Weather Map New forecast layout! Learn more

10-Day Weather Forecast

Advertisements
Track Severe Weather on mobile